Aviation Digital Data Service (ADDS)

Output produced by METARs form (0918 UTC 25 February 2018)
found at http://aviationweather.gov/adds/metars/
 
KSBY 250854Z AUTO 08006KT 1/2SM FG VV002 09/09 A3003 RMK AO2 SLP170 T00940094 56025
KSBY 250555Z 2506/2606 09005KT 1SM BR VCSH OVC004 
     FM250700 11005KT 1/2SM FG OVC002 
     TEMPO 2510/2512 1/4SM FG VV001 
     FM251200 19007KT 2SM BR OVC005 WS020/23040KT 
     FM251500 22012KT P6SM VCSH OVC015 
     FM251800 23013G21KT P6SM BKN040 
     FM252300 26007KT P6SM BKN150